sensor_id;sensor_type;location;lat;lon;timestamp;P1;durP1;ratioP1;P2;durP2;ratioP2
64938;SDS011;51453;47.738;7.420;2024-01-07T00:01:02;15.00;;;9.45;;
64938;SDS011;51453;47.738;7.420;2024-01-07T00:03:28;15.38;;;9.32;;
64938;SDS011;51453;47.738;7.420;2024-01-07T00:05:53;14.40;;;9.20;;
64938;SDS011;51453;47.738;7.420;2024-01-07T00:08:19;15.07;;;9.05;;
64938;SDS011;51453;47.738;7.420;2024-01-07T00:10:46;11.48;;;7.95;;
64938;SDS011;51453;47.738;7.420;2024-01-07T00:13:11;12.30;;;8.77;;
64938;SDS011;51453;47.738;7.420;2024-01-07T00:15:37;14.00;;;9.48;;
64938;SDS011;51453;47.738;7.420;2024-01-07T00:18:03;13.40;;;9.02;;
64938;SDS011;51453;47.738;7.420;2024-01-07T00:20:28;12.25;;;8.02;;
64938;SDS011;51453;47.738;7.420;2024-01-07T00:22:54;10.60;;;7.97;;
64938;SDS011;51453;47.738;7.420;2024-01-07T00:25:21;14.80;;;8.32;;
64938;SDS011;51453;47.738;7.420;2024-01-07T00:27:46;11.25;;;7.68;;
64938;SDS011;51453;47.738;7.420;2024-01-07T00:30:12;10.63;;;7.60;;
64938;SDS011;51453;47.738;7.420;2024-01-07T00:32:38;11.32;;;7.65;;
64938;SDS011;51453;47.738;7.420;2024-01-07T00:35:04;15.15;;;8.02;;
64938;SDS011;51453;47.738;7.420;2024-01-07T00:37:30;12.73;;;8.13;;
64938;SDS011;51453;47.738;7.420;2024-01-07T00:39:56;12.70;;;7.90;;
64938;SDS011;51453;47.738;7.420;2024-01-07T00:42:21;11.95;;;8.50;;
64938;SDS011;51453;47.738;7.420;2024-01-07T00:44:47;11.93;;;8.35;;
64938;SDS011;51453;47.738;7.420;2024-01-07T00:47:12;18.58;;;9.18;;
64938;SDS011;51453;47.738;7.420;2024-01-07T00:49:38;14.68;;;9.35;;
64938;SDS011;51453;47.738;7.420;2024-01-07T00:52:05;16.83;;;9.48;;
64938;SDS011;51453;47.738;7.420;2024-01-07T00:54:31;14.50;;;9.77;;
64938;SDS011;51453;47.738;7.420;2024-01-07T00:56:56;13.75;;;9.00;;
64938;SDS011;51453;47.738;7.420;2024-01-07T00:59:22;14.10;;;10.05;;
64938;SDS011;51453;47.738;7.420;2024-01-07T01:01:48;14.93;;;9.90;;
64938;SDS011;51453;47.738;7.420;2024-01-07T01:04:13;14.70;;;9.30;;
64938;SDS011;51453;47.738;7.420;2024-01-07T01:06:39;14.75;;;9.70;;
64938;SDS011;51453;47.738;7.420;2024-01-07T01:09:04;17.17;;;11.18;;
64938;SDS011;51453;47.738;7.420;2024-01-07T01:11:30;15.35;;;9.85;;
64938;SDS011;51453;47.738;7.420;2024-01-07T01:13:56;14.02;;;9.32;;
64938;SDS011;51453;47.738;7.420;2024-01-07T01:16:22;15.82;;;10.00;;
64938;SDS011;51453;47.738;7.420;2024-01-07T01:18:49;20.05;;;11.27;;
64938;SDS011;51453;47.738;7.420;2024-01-07T01:21:15;18.40;;;11.25;;
64938;SDS011;51453;47.738;7.420;2024-01-07T01:23:40;16.70;;;10.48;;
64938;SDS011;51453;47.738;7.420;2024-01-07T01:26:06;18.25;;;11.18;;
64938;SDS011;51453;47.738;7.420;2024-01-07T01:28:32;15.30;;;9.98;;
64938;SDS011;51453;47.738;7.420;2024-01-07T01:30:57;15.60;;;9.48;;
64938;SDS011;51453;47.738;7.420;2024-01-07T01:33:23;16.98;;;10.75;;
64938;SDS011;51453;47.738;7.420;2024-01-07T01:35:49;16.90;;;10.48;;
64938;SDS011;51453;47.738;7.420;2024-01-07T01:38:14;17.75;;;10.05;;
64938;SDS011;51453;47.738;7.420;2024-01-07T01:40:40;17.10;;;10.48;;
64938;SDS011;51453;47.738;7.420;2024-01-07T01:43:06;19.90;;;10.15;;
64938;SDS011;51453;47.738;7.420;2024-01-07T01:45:31;16.42;;;9.23;;
64938;SDS011;51453;47.738;7.420;2024-01-07T01:47:57;12.52;;;7.18;;
64938;SDS011;51453;47.738;7.420;2024-01-07T01:50:23;13.27;;;7.82;;
64938;SDS011;51453;47.738;7.420;2024-01-07T01:52:49;15.50;;;8.23;;
64938;SDS011;51453;47.738;7.420;2024-01-07T01:55:16;14.98;;;8.10;;
64938;SDS011;51453;47.738;7.420;2024-01-07T01:57:41;15.68;;;7.88;;
64938;SDS011;51453;47.738;7.420;2024-01-07T02:00:09;15.40;;;8.45;;
64938;SDS011;51453;47.738;7.420;2024-01-07T02:02:35;15.85;;;8.52;;
64938;SDS011;51453;47.738;7.420;2024-01-07T02:05:01;16.67;;;8.40;;
64938;SDS011;51453;47.738;7.420;2024-01-07T02:07:28;15.40;;;8.07;;
64938;SDS011;51453;47.738;7.420;2024-01-07T02:09:57;15.05;;;8.00;;
64938;SDS011;51453;47.738;7.420;2024-01-07T02:12:23;14.63;;;7.70;;
64938;SDS011;51453;47.738;7.420;2024-01-07T02:14:48;15.82;;;7.93;;
64938;SDS011;51453;47.738;7.420;2024-01-07T02:17:14;15.25;;;8.30;;
64938;SDS011;51453;47.738;7.420;2024-01-07T02:19:40;16.42;;;8.35;;
64938;SDS011;51453;47.738;7.420;2024-01-07T02:22:06;14.77;;;8.18;;
64938;SDS011;51453;47.738;7.420;2024-01-07T02:24:32;16.58;;;8.75;;
64938;SDS011;51453;47.738;7.420;2024-01-07T02:26:57;18.60;;;9.38;;
64938;SDS011;51453;47.738;7.420;2024-01-07T02:29:27;21.20;;;10.52;;
64938;SDS011;51453;47.738;7.420;2024-01-07T02:31:53;23.90;;;11.60;;
64938;SDS011;51453;47.738;7.420;2024-01-07T02:34:18;24.50;;;11.20;;
64938;SDS011;51453;47.738;7.420;2024-01-07T02:36:44;22.73;;;9.90;;
64938;SDS011;51453;47.738;7.420;2024-01-07T02:39:10;26.48;;;12.23;;
64938;SDS011;51453;47.738;7.420;2024-01-07T02:41:35;23.02;;;11.18;;
64938;SDS011;51453;47.738;7.420;2024-01-07T02:44:01;22.05;;;11.15;;
64938;SDS011;51453;47.738;7.420;2024-01-07T02:46:27;28.02;;;12.30;;
64938;SDS011;51453;47.738;7.420;2024-01-07T02:48:52;29.27;;;13.05;;
64938;SDS011;51453;47.738;7.420;2024-01-07T02:51:18;31.23;;;13.57;;
64938;SDS011;51453;47.738;7.420;2024-01-07T02:53:44;30.73;;;14.02;;
64938;SDS011;51453;47.738;7.420;2024-01-07T02:56:09;29.25;;;13.40;;
64938;SDS011;51453;47.738;7.420;2024-01-07T02:58:35;27.45;;;13.07;;
64938;SDS011;51453;47.738;7.420;2024-01-07T03:01:01;28.15;;;13.90;;
64938;SDS011;51453;47.738;7.420;2024-01-07T03:03:27;23.13;;;12.35;;
64938;SDS011;51453;47.738;7.420;2024-01-07T03:05:52;26.02;;;12.52;;
64938;SDS011;51453;47.738;7.420;2024-01-07T03:08:18;25.63;;;11.70;;
64938;SDS011;51453;47.738;7.420;2024-01-07T03:10:44;23.25;;;11.80;;
64938;SDS011;51453;47.738;7.420;2024-01-07T03:13:09;111.88;;;15.88;;
64938;SDS011;51453;47.738;7.420;2024-01-07T03:15:35;24.80;;;12.38;;
64938;SDS011;51453;47.738;7.420;2024-01-07T03:18:01;23.77;;;11.90;;
64938;SDS011;51453;47.738;7.420;2024-01-07T03:20:27;29.65;;;12.23;;
64938;SDS011;51453;47.738;7.420;2024-01-07T03:22:52;28.45;;;12.93;;
64938;SDS011;51453;47.738;7.420;2024-01-07T03:25:22;24.95;;;12.18;;
64938;SDS011;51453;47.738;7.420;2024-01-07T03:27:48;23.30;;;11.63;;
64938;SDS011;51453;47.738;7.420;2024-01-07T03:30:13;22.63;;;10.52;;
64938;SDS011;51453;47.738;7.420;2024-01-07T03:32:39;23.00;;;10.63;;
64938;SDS011;51453;47.738;7.420;2024-01-07T03:35:05;22.55;;;10.82;;
64938;SDS011;51453;47.738;7.420;2024-01-07T03:37:32;21.20;;;9.90;;
64938;SDS011;51453;47.738;7.420;2024-01-07T03:39:57;21.33;;;10.48;;
64938;SDS011;51453;47.738;7.420;2024-01-07T03:42:23;21.75;;;10.07;;
64938;SDS011;51453;47.738;7.420;2024-01-07T03:44:48;21.27;;;10.18;;
64938;SDS011;51453;47.738;7.420;2024-01-07T03:47:14;24.45;;;10.98;;
64938;SDS011;51453;47.738;7.420;2024-01-07T03:49:40;24.70;;;10.88;;
64938;SDS011;51453;47.738;7.420;2024-01-07T03:52:06;18.02;;;9.27;;
64938;SDS011;51453;47.738;7.420;2024-01-07T03:54:31;20.73;;;9.68;;
64938;SDS011;51453;47.738;7.420;2024-01-07T03:56:57;17.40;;;9.05;;
64938;SDS011;51453;47.738;7.420;2024-01-07T03:59:23;17.95;;;9.18;;
64938;SDS011;51453;47.738;7.420;2024-01-07T04:01:50;17.83;;;8.68;;
64938;SDS011;51453;47.738;7.420;2024-01-07T04:04:17;18.17;;;8.95;;
64938;SDS011;51453;47.738;7.420;2024-01-07T04:06:43;17.15;;;8.75;;
64938;SDS011;51453;47.738;7.420;2024-01-07T04:09:09;17.33;;;8.32;;
64938;SDS011;51453;47.738;7.420;2024-01-07T04:11:41;16.42;;;8.50;;
64938;SDS011;51453;47.738;7.420;2024-01-07T04:14:08;19.40;;;9.40;;
64938;SDS011;51453;47.738;7.420;2024-01-07T04:16:34;17.80;;;8.82;;
64938;SDS011;51453;47.738;7.420;2024-01-07T04:19:00;19.10;;;9.45;;
64938;SDS011;51453;47.738;7.420;2024-01-07T04:21:25;18.27;;;8.73;;
64938;SDS011;51453;47.738;7.420;2024-01-07T04:23:51;20.15;;;9.45;;
64938;SDS011;51453;47.738;7.420;2024-01-07T04:26:17;19.35;;;8.27;;
64938;SDS011;51453;47.738;7.420;2024-01-07T04:28:42;22.55;;;8.85;;
64938;SDS011;51453;47.738;7.420;2024-01-07T04:31:08;18.17;;;9.35;;
64938;SDS011;51453;47.738;7.420;2024-01-07T04:33:34;19.35;;;8.98;;
64938;SDS011;51453;47.738;7.420;2024-01-07T04:36:00;18.00;;;8.07;;
64938;SDS011;51453;47.738;7.420;2024-01-07T04:38:26;17.15;;;8.23;;
64938;SDS011;51453;47.738;7.420;2024-01-07T04:40:52;22.55;;;11.10;;
64938;SDS011;51453;47.738;7.420;2024-01-07T04:43:21;17.85;;;8.05;;
64938;SDS011;51453;47.738;7.420;2024-01-07T04:45:46;17.13;;;8.30;;
64938;SDS011;51453;47.738;7.420;2024-01-07T04:48:12;17.92;;;8.77;;
64938;SDS011;51453;47.738;7.420;2024-01-07T04:50:41;18.92;;;9.20;;
64938;SDS011;51453;47.738;7.420;2024-01-07T04:53:07;17.27;;;8.52;;
64938;SDS011;51453;47.738;7.420;2024-01-07T04:55:33;15.95;;;8.65;;
64938;SDS011;51453;47.738;7.420;2024-01-07T04:57:59;24.27;;;9.95;;
64938;SDS011;51453;47.738;7.420;2024-01-07T05:00:26;22.83;;;10.85;;
64938;SDS011;51453;47.738;7.420;2024-01-07T05:02:52;21.60;;;10.10;;
64938;SDS011;51453;47.738;7.420;2024-01-07T05:05:17;25.08;;;10.98;;
64938;SDS011;51453;47.738;7.420;2024-01-07T05:07:43;28.27;;;11.98;;
64938;SDS011;51453;47.738;7.420;2024-01-07T05:10:09;24.88;;;10.93;;
64938;SDS011;51453;47.738;7.420;2024-01-07T05:12:35;27.30;;;12.20;;
64938;SDS011;51453;47.738;7.420;2024-01-07T05:15:00;27.17;;;12.15;;
64938;SDS011;51453;47.738;7.420;2024-01-07T05:17:26;26.55;;;11.75;;
64938;SDS011;51453;47.738;7.420;2024-01-07T05:19:51;25.20;;;11.52;;
64938;SDS011;51453;47.738;7.420;2024-01-07T05:22:17;27.05;;;11.65;;
64938;SDS011;51453;47.738;7.420;2024-01-07T05:24:43;28.08;;;12.70;;
64938;SDS011;51453;47.738;7.420;2024-01-07T05:27:08;28.55;;;12.70;;
64938;SDS011;51453;47.738;7.420;2024-01-07T05:29:34;28.00;;;12.65;;
64938;SDS011;51453;47.738;7.420;2024-01-07T05:32:00;25.65;;;12.38;;
64938;SDS011;51453;47.738;7.420;2024-01-07T05:34:29;27.88;;;13.57;;
64938;SDS011;51453;47.738;7.420;2024-01-07T05:36:55;33.10;;;13.68;;
64938;SDS011;51453;47.738;7.420;2024-01-07T05:39:20;28.73;;;13.13;;
64938;SDS011;51453;47.738;7.420;2024-01-07T05:41:47;29.67;;;13.50;;
64938;SDS011;51453;47.738;7.420;2024-01-07T05:44:12;23.00;;;11.73;;
64938;SDS011;51453;47.738;7.420;2024-01-07T05:46:38;20.70;;;10.43;;
64938;SDS011;51453;47.738;7.420;2024-01-07T05:49:04;21.35;;;11.02;;
64938;SDS011;51453;47.738;7.420;2024-01-07T05:51:30;20.08;;;9.57;;
64938;SDS011;51453;47.738;7.420;2024-01-07T05:53:57;18.95;;;9.48;;
64938;SDS011;51453;47.738;7.420;2024-01-07T05:56:23;18.15;;;8.80;;
64938;SDS011;51453;47.738;7.420;2024-01-07T05:58:48;20.52;;;9.63;;
64938;SDS011;51453;47.738;7.420;2024-01-07T06:01:20;21.50;;;9.90;;
64938;SDS011;51453;47.738;7.420;2024-01-07T06:03:47;21.67;;;10.38;;
64938;SDS011;51453;47.738;7.420;2024-01-07T06:06:13;18.27;;;8.63;;
64938;SDS011;51453;47.738;7.420;2024-01-07T06:08:42;17.65;;;8.98;;
64938;SDS011;51453;47.738;7.420;2024-01-07T06:11:08;17.42;;;8.52;;
64938;SDS011;51453;47.738;7.420;2024-01-07T06:13:35;16.77;;;9.07;;
64938;SDS011;51453;47.738;7.420;2024-01-07T06:16:01;18.60;;;8.82;;
64938;SDS011;51453;47.738;7.420;2024-01-07T06:18:27;16.15;;;8.80;;
64938;SDS011;51453;47.738;7.420;2024-01-07T06:20:53;19.33;;;9.50;;
64938;SDS011;51453;47.738;7.420;2024-01-07T06:23:18;18.73;;;8.85;;
64938;SDS011;51453;47.738;7.420;2024-01-07T06:25:44;18.33;;;8.93;;
64938;SDS011;51453;47.738;7.420;2024-01-07T06:28:10;19.90;;;9.18;;
64938;SDS011;51453;47.738;7.420;2024-01-07T06:30:35;16.65;;;7.93;;
64938;SDS011;51453;47.738;7.420;2024-01-07T06:33:01;13.40;;;7.57;;
64938;SDS011;51453;47.738;7.420;2024-01-07T06:35:27;14.13;;;7.32;;
64938;SDS011;51453;47.738;7.420;2024-01-07T06:37:53;16.17;;;7.60;;
64938;SDS011;51453;47.738;7.420;2024-01-07T06:40:19;17.92;;;8.55;;
64938;SDS011;51453;47.738;7.420;2024-01-07T06:42:45;19.90;;;8.82;;
64938;SDS011;51453;47.738;7.420;2024-01-07T06:45:12;19.77;;;8.88;;
64938;SDS011;51453;47.738;7.420;2024-01-07T06:47:38;19.85;;;9.27;;
64938;SDS011;51453;47.738;7.420;2024-01-07T06:50:04;19.13;;;9.27;;
64938;SDS011;51453;47.738;7.420;2024-01-07T06:52:30;19.52;;;9.43;;
64938;SDS011;51453;47.738;7.420;2024-01-07T06:54:56;16.48;;;8.05;;
64938;SDS011;51453;47.738;7.420;2024-01-07T06:57:22;22.45;;;9.10;;
64938;SDS011;51453;47.738;7.420;2024-01-07T06:59:47;18.60;;;8.50;;
64938;SDS011;51453;47.738;7.420;2024-01-07T07:02:13;18.23;;;9.75;;
64938;SDS011;51453;47.738;7.420;2024-01-07T07:04:39;19.83;;;9.45;;
64938;SDS011;51453;47.738;7.420;2024-01-07T07:07:04;24.70;;;11.38;;
64938;SDS011;51453;47.738;7.420;2024-01-07T07:09:30;24.75;;;10.93;;
64938;SDS011;51453;47.738;7.420;2024-01-07T07:11:55;24.08;;;11.32;;
64938;SDS011;51453;47.738;7.420;2024-01-07T07:14:21;28.73;;;12.65;;
64938;SDS011;51453;47.738;7.420;2024-01-07T07:16:46;25.13;;;12.10;;
64938;SDS011;51453;47.738;7.420;2024-01-07T07:19:12;31.48;;;13.30;;
64938;SDS011;51453;47.738;7.420;2024-01-07T07:21:40;32.80;;;13.55;;
64938;SDS011;51453;47.738;7.420;2024-01-07T07:24:06;28.10;;;13.43;;
64938;SDS011;51453;47.738;7.420;2024-01-07T07:26:31;32.53;;;13.60;;
64938;SDS011;51453;47.738;7.420;2024-01-07T07:28:58;27.52;;;12.88;;
64938;SDS011;51453;47.738;7.420;2024-01-07T07:31:25;32.03;;;14.18;;
64938;SDS011;51453;47.738;7.420;2024-01-07T07:33:50;29.67;;;14.10;;
64938;SDS011;51453;47.738;7.420;2024-01-07T07:36:17;30.02;;;13.77;;
64938;SDS011;51453;47.738;7.420;2024-01-07T07:38:42;32.78;;;13.90;;
64938;SDS011;51453;47.738;7.420;2024-01-07T07:41:08;32.03;;;14.50;;
64938;SDS011;51453;47.738;7.420;2024-01-07T07:43:34;27.13;;;13.35;;
64938;SDS011;51453;47.738;7.420;2024-01-07T07:45:59;29.65;;;13.63;;
64938;SDS011;51453;47.738;7.420;2024-01-07T07:48:28;28.50;;;13.25;;
64938;SDS011;51453;47.738;7.420;2024-01-07T07:50:53;28.65;;;12.73;;
64938;SDS011;51453;47.738;7.420;2024-01-07T07:53:19;20.83;;;11.55;;
64938;SDS011;51453;47.738;7.420;2024-01-07T07:55:45;20.17;;;10.63;;
64938;SDS011;51453;47.738;7.420;2024-01-07T07:58:11;18.33;;;9.85;;
64938;SDS011;51453;47.738;7.420;2024-01-07T08:00:36;21.00;;;10.57;;
64938;SDS011;51453;47.738;7.420;2024-01-07T08:03:02;23.42;;;11.82;;
64938;SDS011;51453;47.738;7.420;2024-01-07T08:05:28;24.75;;;12.25;;
64938;SDS011;51453;47.738;7.420;2024-01-07T08:07:53;23.77;;;11.73;;
64938;SDS011;51453;47.738;7.420;2024-01-07T08:10:20;29.83;;;13.38;;
64938;SDS011;51453;47.738;7.420;2024-01-07T08:12:47;29.38;;;13.00;;
64938;SDS011;51453;47.738;7.420;2024-01-07T08:15:14;27.50;;;14.10;;
64938;SDS011;51453;47.738;7.420;2024-01-07T08:17:40;27.17;;;13.90;;
64938;SDS011;51453;47.738;7.420;2024-01-07T08:20:06;26.80;;;13.90;;
64938;SDS011;51453;47.738;7.420;2024-01-07T08:22:32;25.65;;;13.07;;
64938;SDS011;51453;47.738;7.420;2024-01-07T08:24:57;31.58;;;13.23;;
64938;SDS011;51453;47.738;7.420;2024-01-07T08:27:23;28.30;;;13.52;;
64938;SDS011;51453;47.738;7.420;2024-01-07T08:29:49;27.65;;;12.93;;
64938;SDS011;51453;47.738;7.420;2024-01-07T08:32:14;24.50;;;12.85;;
64938;SDS011;51453;47.738;7.420;2024-01-07T08:34:40;28.60;;;13.27;;
64938;SDS011;51453;47.738;7.420;2024-01-07T08:37:07;28.48;;;13.13;;
64938;SDS011;51453;47.738;7.420;2024-01-07T08:39:33;28.58;;;13.85;;
64938;SDS011;51453;47.738;7.420;2024-01-07T08:41:59;26.75;;;13.73;;
64938;SDS011;51453;47.738;7.420;2024-01-07T08:44:24;29.92;;;13.98;;
64938;SDS011;51453;47.738;7.420;2024-01-07T08:46:50;26.33;;;14.02;;
64938;SDS011;51453;47.738;7.420;2024-01-07T08:49:16;29.40;;;14.63;;
64938;SDS011;51453;47.738;7.420;2024-01-07T08:51:41;27.98;;;13.60;;
64938;SDS011;51453;47.738;7.420;2024-01-07T08:54:07;26.92;;;13.27;;
64938;SDS011;51453;47.738;7.420;2024-01-07T08:56:33;25.08;;;13.07;;
64938;SDS011;51453;47.738;7.420;2024-01-07T08:58:58;26.60;;;13.75;;
64938;SDS011;51453;47.738;7.420;2024-01-07T09:01:24;26.08;;;13.57;;
64938;SDS011;51453;47.738;7.420;2024-01-07T09:03:50;23.80;;;13.48;;
64938;SDS011;51453;47.738;7.420;2024-01-07T09:06:16;23.85;;;12.75;;
64938;SDS011;51453;47.738;7.420;2024-01-07T09:08:41;26.23;;;13.73;;
64938;SDS011;51453;47.738;7.420;2024-01-07T09:11:07;26.35;;;13.15;;
64938;SDS011;51453;47.738;7.420;2024-01-07T09:13:36;25.38;;;12.52;;
64938;SDS011;51453;47.738;7.420;2024-01-07T09:16:02;27.08;;;13.88;;
64938;SDS011;51453;47.738;7.420;2024-01-07T09:18:27;25.73;;;13.32;;
64938;SDS011;51453;47.738;7.420;2024-01-07T09:20:53;25.20;;;12.65;;
64938;SDS011;51453;47.738;7.420;2024-01-07T09:23:19;27.30;;;13.40;;
64938;SDS011;51453;47.738;7.420;2024-01-07T09:25:44;24.02;;;12.23;;
64938;SDS011;51453;47.738;7.420;2024-01-07T09:28:11;30.08;;;14.00;;
64938;SDS011;51453;47.738;7.420;2024-01-07T09:30:38;27.00;;;13.05;;
64938;SDS011;51453;47.738;7.420;2024-01-07T09:33:03;25.23;;;12.85;;
64938;SDS011;51453;47.738;7.420;2024-01-07T09:35:29;24.88;;;12.82;;
64938;SDS011;51453;47.738;7.420;2024-01-07T09:37:55;24.70;;;12.88;;
64938;SDS011;51453;47.738;7.420;2024-01-07T09:40:20;23.65;;;12.02;;
64938;SDS011;51453;47.738;7.420;2024-01-07T09:42:46;24.30;;;13.52;;
64938;SDS011;51453;47.738;7.420;2024-01-07T09:45:12;18.58;;;11.82;;
64938;SDS011;51453;47.738;7.420;2024-01-07T09:47:42;26.73;;;13.57;;
64938;SDS011;51453;47.738;7.420;2024-01-07T09:50:10;22.25;;;12.27;;
64938;SDS011;51453;47.738;7.420;2024-01-07T09:52:37;26.42;;;13.32;;
64938;SDS011;51453;47.738;7.420;2024-01-07T09:55:07;25.73;;;12.02;;
64938;SDS011;51453;47.738;7.420;2024-01-07T09:57:37;22.63;;;12.25;;
64938;SDS011;51453;47.738;7.420;2024-01-07T10:00:07;25.83;;;12.98;;
64938;SDS011;51453;47.738;7.420;2024-01-07T10:02:33;25.48;;;12.73;;
64938;SDS011;51453;47.738;7.420;2024-01-07T10:05:00;23.23;;;12.55;;
64938;SDS011;51453;47.738;7.420;2024-01-07T10:07:26;23.83;;;12.52;;
64938;SDS011;51453;47.738;7.420;2024-01-07T10:09:51;22.60;;;12.13;;
64938;SDS011;51453;47.738;7.420;2024-01-07T10:12:22;21.23;;;12.18;;
64938;SDS011;51453;47.738;7.420;2024-01-07T10:14:48;21.80;;;12.35;;
64938;SDS011;51453;47.738;7.420;2024-01-07T10:17:17;23.15;;;12.18;;
64938;SDS011;51453;47.738;7.420;2024-01-07T10:19:43;20.55;;;12.02;;
64938;SDS011;51453;47.738;7.420;2024-01-07T10:22:11;21.23;;;12.00;;
64938;SDS011;51453;47.738;7.420;2024-01-07T10:24:41;21.42;;;11.95;;
64938;SDS011;51453;47.738;7.420;2024-01-07T10:27:08;20.30;;;11.88;;
64938;SDS011;51453;47.738;7.420;2024-01-07T10:29:35;25.45;;;12.23;;
64938;SDS011;51453;47.738;7.420;2024-01-07T10:32:02;19.80;;;11.18;;
64938;SDS011;51453;47.738;7.420;2024-01-07T10:34:31;19.90;;;11.73;;
64938;SDS011;51453;47.738;7.420;2024-01-07T10:36:59;18.67;;;10.90;;
64938;SDS011;51453;47.738;7.420;2024-01-07T10:39:26;18.80;;;11.40;;
64938;SDS011;51453;47.738;7.420;2024-01-07T10:41:52;20.05;;;12.32;;
64938;SDS011;51453;47.738;7.420;2024-01-07T10:44:23;16.10;;;9.00;;
64938;SDS011;51453;47.738;7.420;2024-01-07T10:46:56;20.83;;;11.35;;
64938;SDS011;51453;47.738;7.420;2024-01-07T10:49:26;20.15;;;12.38;;
64938;SDS011;51453;47.738;7.420;2024-01-07T10:54:23;19.25;;;10.77;;
64938;SDS011;51453;47.738;7.420;2024-01-07T10:59:19;25.50;;;12.80;;
64938;SDS011;51453;47.738;7.420;2024-01-07T11:01:46;24.23;;;13.48;;
64938;SDS011;51453;47.738;7.420;2024-01-07T11:04:22;22.13;;;11.90;;
64938;SDS011;51453;47.738;7.420;2024-01-07T11:12:01;21.05;;;11.90;;
64938;SDS011;51453;47.738;7.420;2024-01-07T11:14:36;19.70;;;10.93;;
64938;SDS011;51453;47.738;7.420;2024-01-07T11:17:07;18.90;;;11.13;;
64938;SDS011;51453;47.738;7.420;2024-01-07T11:19:36;17.23;;;10.13;;
64938;SDS011;51453;47.738;7.420;2024-01-07T11:24:53;19.63;;;10.32;;
64938;SDS011;51453;47.738;7.420;2024-01-07T11:27:21;16.55;;;9.55;;
64938;SDS011;51453;47.738;7.420;2024-01-07T11:29:57;17.30;;;9.48;;
64938;SDS011;51453;47.738;7.420;2024-01-07T11:32:29;16.48;;;9.50;;
64938;SDS011;51453;47.738;7.420;2024-01-07T11:34:55;17.52;;;9.90;;
64938;SDS011;51453;47.738;7.420;2024-01-07T11:37:23;17.92;;;10.18;;
64938;SDS011;51453;47.738;7.420;2024-01-07T11:39:51;17.27;;;9.85;;
64938;SDS011;51453;47.738;7.420;2024-01-07T11:44:51;18.02;;;9.02;;
64938;SDS011;51453;47.738;7.420;2024-01-07T11:47:18;17.10;;;8.95;;
64938;SDS011;51453;47.738;7.420;2024-01-07T11:49:45;16.13;;;9.15;;
64938;SDS011;51453;47.738;7.420;2024-01-07T11:52:11;16.05;;;9.35;;
64938;SDS011;51453;47.738;7.420;2024-01-07T11:54:38;15.05;;;8.82;;
64938;SDS011;51453;47.738;7.420;2024-01-07T11:57:05;17.80;;;9.98;;
64938;SDS011;51453;47.738;7.420;2024-01-07T11:59:31;17.00;;;9.52;;
64938;SDS011;51453;47.738;7.420;2024-01-07T12:01:59;17.60;;;9.68;;
64938;SDS011;51453;47.738;7.420;2024-01-07T12:04:25;23.95;;;11.50;;
64938;SDS011;51453;47.738;7.420;2024-01-07T12:06:51;20.73;;;10.85;;
64938;SDS011;51453;47.738;7.420;2024-01-07T12:09:17;21.40;;;11.50;;
64938;SDS011;51453;47.738;7.420;2024-01-07T12:11:42;19.88;;;10.95;;
64938;SDS011;51453;47.738;7.420;2024-01-07T12:14:09;25.38;;;11.90;;
64938;SDS011;51453;47.738;7.420;2024-01-07T12:16:36;23.92;;;12.10;;
64938;SDS011;51453;47.738;7.420;2024-01-07T12:19:02;20.65;;;11.27;;
64938;SDS011;51453;47.738;7.420;2024-01-07T12:21:28;20.58;;;11.50;;
64938;SDS011;51453;47.738;7.420;2024-01-07T12:23:54;24.58;;;12.57;;
64938;SDS011;51453;47.738;7.420;2024-01-07T12:26:25;20.23;;;11.48;;
64938;SDS011;51453;47.738;7.420;2024-01-07T12:28:55;20.23;;;12.00;;
64938;SDS011;51453;47.738;7.420;2024-01-07T12:31:24;21.77;;;12.43;;
64938;SDS011;51453;47.738;7.420;2024-01-07T12:33:51;20.42;;;11.68;;
64938;SDS011;51453;47.738;7.420;2024-01-07T12:36:21;20.88;;;11.63;;
64938;SDS011;51453;47.738;7.420;2024-01-07T12:38:47;23.17;;;11.95;;
64938;SDS011;51453;47.738;7.420;2024-01-07T12:41:13;21.67;;;12.73;;
64938;SDS011;51453;47.738;7.420;2024-01-07T12:43:39;19.00;;;11.43;;
64938;SDS011;51453;47.738;7.420;2024-01-07T12:46:06;21.13;;;12.10;;
64938;SDS011;51453;47.738;7.420;2024-01-07T12:48:32;18.58;;;10.65;;
64938;SDS011;51453;47.738;7.420;2024-01-07T12:50:58;18.83;;;11.38;;
64938;SDS011;51453;47.738;7.420;2024-01-07T12:53:25;24.30;;;12.27;;
64938;SDS011;51453;47.738;7.420;2024-01-07T12:55:50;18.75;;;11.30;;
64938;SDS011;51453;47.738;7.420;2024-01-07T12:58:16;19.95;;;11.82;;
64938;SDS011;51453;47.738;7.420;2024-01-07T13:00:42;19.88;;;12.20;;
64938;SDS011;51453;47.738;7.420;2024-01-07T13:03:09;19.48;;;12.43;;
64938;SDS011;51453;47.738;7.420;2024-01-07T13:05:42;19.05;;;11.40;;
64938;SDS011;51453;47.738;7.420;2024-01-07T13:08:08;19.35;;;12.35;;
64938;SDS011;51453;47.738;7.420;2024-01-07T13:10:34;17.17;;;10.77;;
64938;SDS011;51453;47.738;7.420;2024-01-07T13:13:00;17.08;;;10.40;;
64938;SDS011;51453;47.738;7.420;2024-01-07T13:15:25;16.13;;;10.63;;
64938;SDS011;51453;47.738;7.420;2024-01-07T13:17:51;16.48;;;10.82;;
64938;SDS011;51453;47.738;7.420;2024-01-07T13:20:17;19.95;;;11.30;;
64938;SDS011;51453;47.738;7.420;2024-01-07T13:22:45;15.65;;;10.45;;
64938;SDS011;51453;47.738;7.420;2024-01-07T13:25:13;15.60;;;10.77;;
64938;SDS011;51453;47.738;7.420;2024-01-07T13:27:39;15.82;;;10.32;;
64938;SDS011;51453;47.738;7.420;2024-01-07T13:30:05;16.42;;;10.68;;
64938;SDS011;51453;47.738;7.420;2024-01-07T13:32:31;17.92;;;11.40;;
64938;SDS011;51453;47.738;7.420;2024-01-07T13:35:01;15.40;;;10.37;;
64938;SDS011;51453;47.738;7.420;2024-01-07T13:37:30;15.57;;;10.50;;
64938;SDS011;51453;47.738;7.420;2024-01-07T13:39:56;16.23;;;10.05;;
64938;SDS011;51453;47.738;7.420;2024-01-07T13:42:22;16.38;;;10.52;;
64938;SDS011;51453;47.738;7.420;2024-01-07T13:44:48;15.70;;;10.40;;
64938;SDS011;51453;47.738;7.420;2024-01-07T13:47:13;17.73;;;10.23;;
64938;SDS011;51453;47.738;7.420;2024-01-07T13:49:42;15.43;;;10.07;;
64938;SDS011;51453;47.738;7.420;2024-01-07T13:52:10;17.50;;;9.95;;
64938;SDS011;51453;47.738;7.420;2024-01-07T13:54:36;16.10;;;10.07;;
64938;SDS011;51453;47.738;7.420;2024-01-07T13:57:02;14.82;;;9.75;;
64938;SDS011;51453;47.738;7.420;2024-01-07T13:59:29;16.27;;;10.57;;
64938;SDS011;51453;47.738;7.420;2024-01-07T14:01:54;15.35;;;9.70;;
64938;SDS011;51453;47.738;7.420;2024-01-07T14:04:22;15.77;;;9.95;;
64938;SDS011;51453;47.738;7.420;2024-01-07T14:06:53;18.88;;;10.32;;
64938;SDS011;51453;47.738;7.420;2024-01-07T14:09:22;17.50;;;10.43;;
64938;SDS011;51453;47.738;7.420;2024-01-07T14:11:49;15.13;;;10.25;;
64938;SDS011;51453;47.738;7.420;2024-01-07T14:14:15;20.50;;;11.35;;
64938;SDS011;51453;47.738;7.420;2024-01-07T14:16:41;20.83;;;10.38;;
64938;SDS011;51453;47.738;7.420;2024-01-07T14:19:07;16.15;;;10.80;;
64938;SDS011;51453;47.738;7.420;2024-01-07T14:21:32;14.52;;;9.95;;
64938;SDS011;51453;47.738;7.420;2024-01-07T14:23:58;16.27;;;9.93;;
64938;SDS011;51453;47.738;7.420;2024-01-07T14:26:24;16.95;;;10.23;;
64938;SDS011;51453;47.738;7.420;2024-01-07T14:28:50;15.95;;;10.13;;
64938;SDS011;51453;47.738;7.420;2024-01-07T14:31:17;16.70;;;10.57;;
64938;SDS011;51453;47.738;7.420;2024-01-07T14:33:43;16.92;;;10.63;;
64938;SDS011;51453;47.738;7.420;2024-01-07T14:36:09;17.52;;;10.57;;